バルセロナ の空港の天気 - METARとTAF

バルセロナ・エル・プラット国際空港 ( LEBL / BCN ) - スペイン バルセロナ
飛行場実況気象(Metar)
観測時間10/14 03:30 CEST (10/14 01:30 UTC)
風向・風速東北東 4m/s
視程10km以上
天気現象
全天の4割程度の雲 雲底高度 210m
全天の8割程度の雲 雲底高度 1130m
気温21℃
湿度94%
気圧1016hPa
METARLEBL 140130Z 07007KT 9999 SCT007 BKN037 21/20 Q1016 NOSIG
過去の天気等 Google飛行場航空写真 Wunderground天気予報

過去48時間のMETAR

飛行場予報(TAF)
発表時間: 10/14 01:00 CEST (10/13 23:00 UTC)
予報対象時間: 14日2時 CEST ~ 15日2時 CEST
風向・風速不定 3m/s
視程10km以上
全天の4割程度の雲 雲底高度 240m
全天の8割程度の雲 雲底高度 610m
14日2時 CEST ~ 14日8時 CEST に一時的に
全天の8割程度の雲 雲底高度 90m
14日10時 CEST ~ 14日12時 CEST に徐々に
風向・風速東 5m/s
14日17時 CEST ~ 14日19時 CEST に徐々に
風向・風速不定 3m/s
14日18時 CEST ~ 15日2時 CEST に 確率 40% で一時的に
視程2000m
天気現象雷雨
全天の8割程度の積乱雲 雲底高度 1830m
14日22時 CEST ~ 14日24時 CEST に徐々に
風向・風速西南西 5m/s
TAF LEBL 132300Z 1400/1424 VRB05KT 9999 SCT008 BKN020 TX26/1412Z TN18/1406Z
TEMPO 1400/1406 BKN003
BECMG 1408/1410 08010KT
BECMG 1415/1417 VRB05KT
PROB40 TEMPO 1416/1424 2000 TSRA BKN060CB
BECMG 1420/1422 25010KT